首页
METAR-TAF:

METAR-TAF

机场 :

尼诺伊·阿基诺国际机场

马尼拉, 菲律宾

纬度: 14-31N, 经度: 121-00E, 海拔: 14米

当前天气观测

该预报发布于1小时和7分钟前的22:00 UTC
风速2节,风向
温度 25°C
湿度 79%
气压 1011 hPa
能见度10公里或以上
散云层高于2300英尺
多云层高于10000英尺

METAR: RPLL 232200Z 17002KT 9999 SCT023 BKN100 25/21 Q1011 NOSIG RMK A2985

时间: 07:07 (23:07 UTC)

预报

该预报发布于6小时和7分钟前的17:00 UTC
预报有效从23日的 18点(UTC)到 24日的 24点(UTC)
风速6节,风向东北
能见度10公里或以上
少量云层高于2300英尺
散云层高于10000英尺
短暂存在
从 23日的 18点(UTC)到 23日的 24点(UTC)
风速6节,风向北转东北
少量云层高于2300英尺
多云层高于10000英尺
短暂存在
从 24日的 00点(UTC)到 24日的 06点(UTC)
风速8节,风向东转东北
散云层高于2300英尺
多云层高于10000英尺

TAF: RPLL 231700Z 2318/2424 05006KT 9999 FEW023 SCT100 TX30/2406Z TN25/2321Z TEMPO 2318/2324 03006KT FEW023 BKN100 TEMPO 2400/2406 07008KT SCT023 BKN100

超过4000个机场的气象观测和天气预报(METAR&TAF报告)。

可查询的气象台以黄色和红色小点在地图上表示。

将鼠标移到小点上方,可查看气象台名称。

然后点击查看天气观测和预报。

如需切换地图:点击带黑十字的绿色按钮放大地图;点击带横线的绿色按钮缩小地图;或者点击绿色箭头查看邻近地区的地图。


METAR-TAF: